Terminal Aerodrome Forecast
Issued by NWS

Home | Current Version | Previous Version | Graphics & Text | Print | Product List | Glossary On
Versions: 1 2 3 4 5 6 7 8 9 10 11 12 13 14 15 16 17 18 19
991
FTUS43 KBIS 170429 AAB
TAFMOT
TAF AMD
KMOT 170429Z 1704/1724 24011KT P6SM VCSH BKN080 OVC100
      TEMPO 1704/1706 -FZRASN BKN045
     FM170600 26011KT P6SM SCT120 SCT200
     FM170800 28010KT P6SM SCT250=

USA.gov is the U.S. government's official web portal to all federal, state and local government web resources and services.